createdAt,value
2018-05-14T00:00:50.087Z,20.10
2018-05-14T00:03:17.891Z,20.10
2018-05-14T00:05:45.495Z,20.10
2018-05-14T00:08:13.016Z,20.00
2018-05-14T00:10:40.535Z,20.00
2018-05-14T00:13:08.036Z,20.00
2018-05-14T00:15:36.328Z,20.00
2018-05-14T00:18:04.643Z,20.00
2018-05-14T00:20:32.251Z,19.90
2018-05-14T00:22:59.789Z,19.90
2018-05-14T00:25:27.327Z,19.90
2018-05-14T00:27:55.605Z,19.90
2018-05-14T00:30:23.095Z,19.90
2018-05-14T00:32:51.479Z,19.80
2018-05-14T00:35:19.741Z,19.80
2018-05-14T00:37:48.781Z,19.80
2018-05-14T00:40:17.033Z,19.80
2018-05-14T00:42:44.566Z,19.70
2018-05-14T00:45:12.069Z,19.80
2018-05-14T00:47:40.247Z,19.70
2018-05-14T00:50:07.855Z,19.70
2018-05-14T00:52:35.377Z,19.70
2018-05-14T00:55:14.897Z,19.70
2018-05-14T00:57:43.133Z,19.70
2018-05-14T01:00:10.669Z,19.60
2018-05-14T01:02:38.179Z,19.70
2018-05-14T01:05:05.686Z,19.70
2018-05-14T01:07:33.983Z,19.70
2018-05-14T01:10:02.369Z,19.70
2018-05-14T01:12:30.652Z,19.60
2018-05-14T01:14:58.933Z,19.60
2018-05-14T01:17:26.541Z,19.60
2018-05-14T01:19:54.098Z,19.60
2018-05-14T01:22:22.401Z,19.60
2018-05-14T01:24:55.540Z,19.50
2018-05-14T01:27:23.061Z,19.50
2018-05-14T01:29:50.655Z,19.50
2018-05-14T01:32:18.183Z,19.50
2018-05-14T01:34:46.465Z,19.40
2018-05-14T01:37:14.089Z,19.40
2018-05-14T01:39:42.387Z,19.40
2018-05-14T01:42:09.926Z,19.40
2018-05-14T01:44:38.300Z,19.30
2018-05-14T01:47:05.798Z,19.30
2018-05-14T01:49:33.349Z,19.30
2018-05-14T01:52:00.910Z,19.30
2018-05-14T01:54:28.611Z,19.30
2018-05-14T01:56:56.094Z,19.20
2018-05-14T01:59:23.616Z,19.20
2018-05-14T02:01:51.199Z,19.20
2018-05-14T02:04:19.483Z,19.10
2018-05-14T02:06:47.079Z,19.10
2018-05-14T02:09:14.630Z,19.10
2018-05-14T02:11:42.982Z,19.00
2018-05-14T02:14:10.725Z,19.10
2018-05-14T02:16:38.265Z,19.00
2018-05-14T02:19:06.525Z,19.00
2018-05-14T02:21:34.036Z,19.00
2018-05-14T02:24:02.292Z,18.90
2018-05-14T02:26:29.892Z,18.90
2018-05-14T02:28:58.252Z,18.80
2018-05-14T02:31:25.782Z,18.80
2018-05-14T02:33:53.403Z,18.80
2018-05-14T02:36:20.895Z,18.80
2018-05-14T02:38:48.460Z,18.70
2018-05-14T02:41:16.720Z,18.70
2018-05-14T02:43:44.329Z,18.70
2018-05-14T02:46:12.633Z,18.60
2018-05-14T02:48:40.156Z,18.60
2018-05-14T02:51:07.664Z,18.60
2018-05-14T02:53:36.055Z,18.60
2018-05-14T02:56:03.599Z,18.60
2018-05-14T02:58:31.117Z,18.50
2018-05-14T03:00:58.651Z,18.60
2018-05-14T03:03:26.247Z,18.50
2018-05-14T03:05:53.813Z,18.50
2018-05-14T03:08:22.077Z,18.50
2018-05-14T03:10:51.136Z,18.50
2018-05-14T03:13:18.635Z,18.40
2018-05-14T03:15:46.165Z,18.40
2018-05-14T03:18:13.646Z,18.40
2018-05-14T03:20:41.179Z,18.40
2018-05-14T03:23:09.415Z,18.30
2018-05-14T03:25:36.946Z,18.30
2018-05-14T03:28:04.442Z,18.30
2018-05-14T03:30:32.145Z,18.30
2018-05-14T03:32:59.635Z,18.20
2018-05-14T03:35:27.160Z,18.20
2018-05-14T03:37:54.679Z,18.20
2018-05-14T03:40:22.265Z,18.20
2018-05-14T03:42:50.534Z,18.20
2018-05-14T03:45:18.345Z,18.20
2018-05-14T03:47:45.839Z,18.20
2018-05-14T03:50:13.599Z,18.20
2018-05-14T03:52:41.088Z,18.20
2018-05-14T03:55:08.633Z,18.10
2018-05-14T03:57:36.219Z,18.10
2018-05-14T04:00:15.838Z,18.10
2018-05-14T04:02:56.013Z,18.10
2018-05-14T04:05:36.331Z,18.10
2018-05-14T04:08:03.855Z,18.10
2018-05-14T04:10:32.234Z,18.10
2018-05-14T04:13:00.620Z,18.10
2018-05-14T04:15:28.211Z,18.10
2018-05-14T04:17:56.516Z,18.10
2018-05-14T04:20:24.812Z,18.00
2018-05-14T04:22:52.540Z,18.00
2018-05-14T04:25:20.132Z,18.10
2018-05-14T04:27:48.641Z,18.00
2018-05-14T04:30:16.234Z,18.00
2018-05-14T04:32:43.800Z,18.00
2018-05-14T04:35:11.343Z,18.00
2018-05-14T04:37:38.904Z,18.00
2018-05-14T04:40:07.179Z,18.00
2018-05-14T04:42:35.199Z,18.00
2018-05-14T04:45:02.772Z,18.00
2018-05-14T04:47:30.340Z,18.00
2018-05-14T04:49:57.904Z,18.00
2018-05-14T04:52:26.276Z,18.00
2018-05-14T04:54:53.761Z,18.00
2018-05-14T04:57:22.019Z,18.00
2018-05-14T04:59:49.648Z,18.00
2018-05-14T05:02:17.217Z,18.00
2018-05-14T05:04:44.776Z,18.10
2018-05-14T05:07:12.256Z,18.10
2018-05-14T05:09:39.839Z,18.10
2018-05-14T05:12:07.368Z,18.10
2018-05-14T05:14:35.735Z,18.10
2018-05-14T05:17:03.259Z,18.10
2018-05-14T05:19:30.754Z,18.10
2018-05-14T05:21:58.465Z,18.10
2018-05-14T05:24:26.730Z,18.10
2018-05-14T05:26:54.257Z,18.10
2018-05-14T05:29:21.905Z,18.10
2018-05-14T05:31:50.428Z,18.10
2018-05-14T05:34:17.995Z,18.10
2018-05-14T05:36:45.507Z,18.10
2018-05-14T05:39:13.018Z,18.10
2018-05-14T05:41:41.434Z,18.20
2018-05-14T05:44:09.107Z,18.20
2018-05-14T05:46:36.619Z,18.20
2018-05-14T05:49:04.230Z,18.30
2018-05-14T05:51:31.876Z,18.30
2018-05-14T05:53:59.415Z,18.30
2018-05-14T05:56:26.903Z,18.30
2018-05-14T05:58:54.452Z,18.30
2018-05-14T06:01:22.026Z,18.30
2018-05-14T06:03:49.740Z,18.40
2018-05-14T06:06:17.555Z,18.40
2018-05-14T06:08:45.263Z,18.40
2018-05-14T06:11:12.796Z,18.50
2018-05-14T06:13:40.367Z,18.50
2018-05-14T06:16:07.922Z,18.50
2018-05-14T06:18:36.323Z,18.60
2018-05-14T06:21:03.822Z,18.60
2018-05-14T06:23:31.378Z,18.70
2018-05-14T06:25:59.158Z,18.70
2018-05-14T06:28:26.728Z,18.80
2018-05-14T06:30:54.329Z,18.80
2018-05-14T06:33:21.864Z,18.90
2018-05-14T06:35:49.485Z,18.90
2018-05-14T06:38:16.934Z,19.00
2018-05-14T06:40:44.615Z,19.10
2018-05-14T06:43:12.139Z,19.10
2018-05-14T06:45:40.421Z,19.30
2018-05-14T06:48:08.681Z,19.30
2018-05-14T06:50:36.229Z,19.30
2018-05-14T06:53:03.779Z,19.40
2018-05-14T06:55:31.316Z,19.50
2018-05-14T06:57:59.589Z,19.50
2018-05-14T07:00:27.105Z,19.50
2018-05-14T07:02:54.594Z,19.60
2018-05-14T07:05:22.140Z,19.70
2018-05-14T07:07:49.785Z,19.70
2018-05-14T07:10:18.035Z,19.90
2018-05-14T07:12:45.556Z,19.80
2018-05-14T07:15:13.957Z,20.00
2018-05-14T07:17:42.236Z,20.10
2018-05-14T07:20:10.494Z,20.20
2018-05-14T07:22:38.253Z,20.10
2018-05-14T07:25:05.767Z,20.20
2018-05-14T07:27:34.097Z,20.40
2018-05-14T07:30:01.611Z,20.30
2018-05-14T07:32:29.137Z,20.40
2018-05-14T07:34:56.637Z,20.50
2018-05-14T07:37:24.183Z,20.60
2018-05-14T07:39:51.851Z,20.60
2018-05-14T07:42:19.342Z,20.70
2018-05-14T07:44:46.876Z,20.70
2018-05-14T07:47:14.372Z,20.80
2018-05-14T07:49:42.029Z,20.80
2018-05-14T07:52:09.654Z,20.80
2018-05-14T07:54:37.138Z,20.90
2018-05-14T07:57:05.418Z,21.00
2018-05-14T07:59:32.975Z,21.00
2018-05-14T08:02:01.279Z,21.20
2018-05-14T08:04:28.872Z,21.10
2018-05-14T08:06:56.350Z,21.20
2018-05-14T08:09:24.138Z,21.30
2018-05-14T08:11:51.627Z,21.40
2018-05-14T08:14:19.220Z,21.50
2018-05-14T08:16:46.832Z,21.60
2018-05-14T08:19:15.217Z,21.80
2018-05-14T08:21:43.540Z,21.80
2018-05-14T08:24:11.064Z,21.80
2018-05-14T08:26:39.448Z,21.90
2018-05-14T08:29:07.038Z,21.90
2018-05-14T08:31:35.397Z,22.10
2018-05-14T08:34:02.913Z,22.10
2018-05-14T08:36:30.438Z,22.10
2018-05-14T08:38:58.199Z,22.20
2018-05-14T08:41:25.637Z,22.30
2018-05-14T08:43:53.167Z,22.40
2018-05-14T08:46:20.770Z,22.50
2018-05-14T08:48:48.259Z,22.60
2018-05-14T08:51:15.780Z,22.70
2018-05-14T08:53:43.384Z,22.70
2018-05-14T08:56:11.034Z,22.80
2018-05-14T08:58:38.552Z,22.80
2018-05-14T09:01:06.233Z,22.90
2018-05-14T09:03:33.671Z,23.00
2018-05-14T09:06:01.161Z,23.10
2018-05-14T09:08:28.740Z,23.20
2018-05-14T09:10:56.257Z,23.20
2018-05-14T09:13:24.575Z,23.30
2018-05-14T09:15:52.141Z,23.30
2018-05-14T09:18:19.680Z,23.40
2018-05-14T09:20:47.254Z,23.50
2018-05-14T09:23:14.929Z,23.60
2018-05-14T09:25:42.532Z,23.70
2018-05-14T09:28:10.819Z,23.90
2018-05-14T09:30:38.342Z,24.00
2018-05-14T09:33:05.872Z,24.20
2018-05-14T09:35:33.429Z,24.30
2018-05-14T09:38:00.991Z,24.40
2018-05-14T09:40:29.350Z,24.60
2018-05-14T09:42:56.857Z,24.60
2018-05-14T09:45:24.415Z,24.70
2018-05-14T09:47:51.910Z,24.90
2018-05-14T09:50:19.458Z,24.90
2018-05-14T09:52:47.827Z,25.50
2018-05-14T09:55:16.172Z,25.50
2018-05-14T09:57:46.489Z,25.50
2018-05-14T10:00:15.076Z,25.60
2018-05-14T10:02:43.795Z,25.60
2018-05-14T10:05:11.530Z,25.60
2018-05-14T10:07:39.509Z,25.80
2018-05-14T10:10:07.012Z,25.80
2018-05-14T10:12:34.628Z,25.80
2018-05-14T10:15:02.320Z,26.30
2018-05-14T10:17:30.584Z,26.50
2018-05-14T10:19:58.864Z,26.50
2018-05-14T10:22:27.911Z,26.70
2018-05-14T10:24:55.417Z,26.70
2018-05-14T10:27:22.907Z,26.80
2018-05-14T10:29:50.420Z,26.80
2018-05-14T10:32:17.943Z,27.20
2018-05-14T10:34:45.501Z,27.50
2018-05-14T10:37:12.999Z,27.60
2018-05-14T10:39:40.514Z,27.70
2018-05-14T10:42:08.195Z,28.00
2018-05-14T10:44:35.716Z,28.10
2018-05-14T10:47:03.310Z,28.30
2018-05-14T10:49:31.648Z,28.40
2018-05-14T10:51:59.137Z,28.40
2018-05-14T10:54:26.658Z,28.70
2018-05-14T10:56:54.182Z,29.20
2018-05-14T10:59:22.461Z,30.00
2018-05-14T11:01:49.997Z,29.90
2018-05-14T11:04:17.644Z,30.40
2018-05-14T11:06:45.921Z,30.30
2018-05-14T11:09:13.568Z,30.30
2018-05-14T11:11:41.152Z,30.20
2018-05-14T11:14:08.732Z,30.10
2018-05-14T11:16:37.787Z,30.80
2018-05-14T11:19:05.281Z,30.80
2018-05-14T11:21:32.810Z,30.90
2018-05-14T11:24:00.372Z,30.80
2018-05-14T11:26:28.857Z,31.10
2018-05-14T11:28:57.128Z,31.40
2018-05-14T11:31:24.619Z,31.30
2018-05-14T11:33:53.003Z,31.40
2018-05-14T11:36:21.413Z,31.80
2018-05-14T11:38:48.946Z,31.70
2018-05-14T11:41:16.428Z,31.90
2018-05-14T11:43:44.734Z,32.40
2018-05-14T11:46:12.981Z,32.60
2018-05-14T11:48:40.498Z,32.60
2018-05-14T11:51:09.124Z,32.70
2018-05-14T11:53:36.652Z,32.60
2018-05-14T11:56:04.955Z,31.80
2018-05-14T11:58:32.525Z,31.80
2018-05-14T12:01:00.040Z,32.10
2018-05-14T12:03:27.655Z,32.00
2018-05-14T12:05:55.959Z,32.50
2018-05-14T12:08:23.480Z,32.50
2018-05-14T12:10:51.000Z,32.70
2018-05-14T12:13:18.550Z,32.90
2018-05-14T12:15:46.800Z,33.10
2018-05-14T12:18:14.364Z,33.00
2018-05-14T12:20:41.877Z,33.20
2018-05-14T12:23:09.396Z,33.20
2018-05-14T12:25:36.953Z,33.10
2018-05-14T12:28:04.489Z,32.90
2018-05-14T12:30:32.790Z,32.90
2018-05-14T12:33:01.038Z,32.80
2018-05-14T12:35:28.573Z,32.80
2018-05-14T12:37:56.238Z,32.80
2018-05-14T12:40:23.914Z,33.00
2018-05-14T12:42:51.394Z,32.70
2018-05-14T12:45:18.987Z,32.80
2018-05-14T12:47:46.568Z,32.70
2018-05-14T12:50:14.060Z,32.30
2018-05-14T12:52:41.741Z,32.30
2018-05-14T12:55:10.012Z,32.40
2018-05-14T12:57:37.704Z,32.40
2018-05-14T13:00:05.201Z,32.30
2018-05-14T13:02:33.601Z,32.10
2018-05-14T13:05:01.144Z,32.10
2018-05-14T13:07:28.656Z,32.00
2018-05-14T13:09:56.308Z,31.90
2018-05-14T13:12:23.837Z,31.90
2018-05-14T13:14:51.375Z,31.80
2018-05-14T13:17:18.910Z,31.80
2018-05-14T13:19:47.238Z,31.60
2018-05-14T13:22:15.672Z,31.40
2018-05-14T13:24:43.264Z,31.40
2018-05-14T13:27:11.546Z,31.30
2018-05-14T13:29:39.079Z,31.30
2018-05-14T13:32:06.927Z,31.00
2018-05-14T13:34:35.158Z,30.70
2018-05-14T13:37:02.796Z,30.70
2018-05-14T13:39:30.336Z,30.80
2018-05-14T13:41:58.727Z,31.30
2018-05-14T13:44:27.055Z,31.20
2018-05-14T13:46:54.564Z,31.10
2018-05-14T13:49:22.143Z,31.20
2018-05-14T13:51:49.941Z,31.20
2018-05-14T13:54:18.191Z,31.10
2018-05-14T13:56:45.719Z,31.10
2018-05-14T13:59:13.256Z,31.20
2018-05-14T14:01:41.626Z,31.30
2018-05-14T14:04:10.657Z,31.20
2018-05-14T14:06:39.032Z,31.30
2018-05-14T14:09:06.744Z,31.30
2018-05-14T14:11:34.407Z,31.20
2018-05-14T14:14:01.989Z,31.10
2018-05-14T14:16:29.535Z,30.90
2018-05-14T14:18:57.849Z,31.00
2018-05-14T14:21:25.430Z,31.00
2018-05-14T14:23:52.950Z,31.00
2018-05-14T14:26:20.483Z,31.00
2018-05-14T14:28:48.025Z,30.90
2018-05-14T14:31:16.302Z,30.40
2018-05-14T14:33:44.560Z,30.00
2018-05-14T14:36:12.376Z,30.00
2018-05-14T14:38:40.553Z,30.00
2018-05-14T14:41:08.998Z,29.90
2018-05-14T14:43:36.524Z,29.90
2018-05-14T14:46:04.790Z,30.00
2018-05-14T14:48:32.470Z,30.00
2018-05-14T14:51:00.049Z,29.90
2018-05-14T14:53:28.437Z,29.70
2018-05-14T14:55:56.724Z,29.60
2018-05-14T14:58:24.219Z,29.60
2018-05-14T15:00:51.804Z,29.60
2018-05-14T15:03:19.292Z,29.60
2018-05-14T15:05:46.916Z,29.50
2018-05-14T15:08:15.297Z,29.20
2018-05-14T15:10:42.886Z,29.20
2018-05-14T15:13:10.462Z,29.10
2018-05-14T15:15:38.727Z,28.90
2018-05-14T15:18:06.226Z,28.90
2018-05-14T15:20:33.761Z,28.90
2018-05-14T15:23:01.781Z,28.90
2018-05-14T15:25:29.337Z,29.00
2018-05-14T15:27:57.641Z,28.80
2018-05-14T15:30:25.193Z,28.80
2018-05-14T15:32:52.757Z,28.80
2018-05-14T15:35:20.354Z,28.70
2018-05-14T15:37:47.883Z,28.50
2018-05-14T15:40:15.482Z,28.30
2018-05-14T15:42:43.852Z,28.00
2018-05-14T15:45:11.472Z,28.00
2018-05-14T15:47:39.136Z,28.00
2018-05-14T15:50:06.628Z,27.90
2018-05-14T15:52:34.149Z,27.80
2018-05-14T15:55:02.554Z,27.70
2018-05-14T15:57:30.178Z,27.70
2018-05-14T15:59:57.662Z,27.60
2018-05-14T16:02:25.400Z,27.50
2018-05-14T16:04:52.957Z,27.50
2018-05-14T16:07:20.514Z,27.50
2018-05-14T16:09:48.897Z,27.20
2018-05-14T16:12:17.161Z,27.10
2018-05-14T16:14:45.467Z,26.90
2018-05-14T16:17:13.042Z,26.90
2018-05-14T16:19:41.357Z,26.60
2018-05-14T16:22:09.818Z,26.50
2018-05-14T16:24:37.318Z,26.50
2018-05-14T16:27:05.603Z,26.30
2018-05-14T16:29:33.196Z,26.30
2018-05-14T16:32:00.723Z,26.20
2018-05-14T16:34:29.103Z,26.00
2018-05-14T16:36:57.368Z,25.90
2018-05-14T16:39:24.987Z,25.90
2018-05-14T16:41:53.793Z,25.70
2018-05-14T16:44:21.279Z,25.70
2018-05-14T16:46:48.774Z,25.70
2018-05-14T16:49:16.406Z,25.50
2018-05-14T16:51:44.853Z,25.30
2018-05-14T16:54:12.391Z,25.30
2018-05-14T16:56:40.044Z,25.30
2018-05-14T16:59:08.446Z,25.20
2018-05-14T17:01:36.922Z,25.20
2018-05-14T17:04:05.314Z,25.20
2018-05-14T17:06:32.752Z,25.20
2018-05-14T17:09:00.341Z,25.10
2018-05-14T17:11:28.765Z,24.90
2018-05-14T17:13:56.271Z,24.90
2018-05-14T17:16:23.829Z,24.90
2018-05-14T17:18:51.485Z,24.90
2018-05-14T17:21:19.031Z,24.80
2018-05-14T17:23:47.321Z,24.70
2018-05-14T17:26:15.614Z,24.70
2018-05-14T17:28:43.884Z,24.70
2018-05-14T17:31:12.169Z,24.60
2018-05-14T17:33:40.456Z,24.60
2018-05-14T17:36:08.713Z,24.60
2018-05-14T17:38:36.309Z,24.60
2018-05-14T17:41:03.830Z,24.60
2018-05-14T17:43:32.012Z,24.50
2018-05-14T17:45:59.868Z,24.40
2018-05-14T17:48:28.975Z,24.10
2018-05-14T17:50:57.253Z,24.00
2018-05-14T17:53:25.509Z,24.00
2018-05-14T17:55:53.151Z,24.00
2018-05-14T17:58:20.701Z,23.90
2018-05-14T18:00:49.085Z,23.80
2018-05-14T18:03:17.367Z,23.80
2018-05-14T18:05:45.661Z,23.80
2018-05-14T18:08:13.931Z,23.70
2018-05-14T18:10:41.483Z,23.60
2018-05-14T18:13:09.000Z,23.50
2018-05-14T18:15:40.270Z,23.40
2018-05-14T18:18:07.799Z,23.30
2018-05-14T18:20:38.261Z,23.30
2018-05-14T18:23:05.883Z,23.20
2018-05-14T18:25:39.091Z,23.20
2018-05-14T18:28:08.460Z,23.20
2018-05-14T18:30:39.509Z,23.10
2018-05-14T18:33:10.781Z,23.10
2018-05-14T18:35:44.910Z,23.10
2018-05-14T18:38:12.545Z,23.10
2018-05-14T18:40:40.063Z,23.00
2018-05-14T18:43:07.721Z,23.00
2018-05-14T18:45:35.987Z,22.90
2018-05-14T18:48:04.271Z,22.80
2018-05-14T18:50:31.826Z,22.80
2018-05-14T18:52:59.367Z,22.80
2018-05-14T18:55:26.921Z,22.70
2018-05-14T18:57:54.489Z,22.70
2018-05-14T19:00:22.213Z,22.70
2018-05-14T19:02:49.839Z,22.60
2018-05-14T19:05:17.363Z,22.60
2018-05-14T19:07:44.996Z,22.50
2018-05-14T19:10:18.239Z,22.50
2018-05-14T19:12:45.761Z,22.50
2018-05-14T19:15:19.098Z,22.50
2018-05-14T19:17:52.345Z,22.40
2018-05-14T19:20:20.088Z,22.40
2018-05-14T19:22:53.349Z,22.30
2018-05-14T19:25:21.008Z,22.30
2018-05-14T19:27:54.847Z,22.30
2018-05-14T19:30:22.642Z,22.30
2018-05-14T19:32:50.190Z,22.30
2018-05-14T19:35:24.301Z,22.10
2018-05-14T19:37:52.604Z,22.10
2018-05-14T19:40:26.504Z,22.10
2018-05-14T19:42:54.897Z,22.00
2018-05-14T19:45:23.210Z,22.00
2018-05-14T19:47:51.605Z,22.00
2018-05-14T19:50:19.181Z,21.90
2018-05-14T19:52:46.716Z,21.90
2018-05-14T19:55:15.147Z,21.90
2018-05-14T19:57:42.665Z,21.80
2018-05-14T20:00:10.396Z,21.80
2018-05-14T20:02:38.060Z,21.70
2018-05-14T20:05:05.689Z,21.70
2018-05-14T20:07:33.268Z,21.70
2018-05-14T20:10:00.932Z,21.70
2018-05-14T20:12:28.557Z,21.70
2018-05-14T20:14:56.224Z,21.60
2018-05-14T20:17:23.768Z,21.60
2018-05-14T20:19:51.838Z,21.50
2018-05-14T20:22:19.449Z,21.50
2018-05-14T20:24:47.057Z,21.50
2018-05-14T20:27:14.577Z,21.40
2018-05-14T20:29:42.899Z,21.40
2018-05-14T20:32:10.470Z,21.40
2018-05-14T20:34:38.008Z,21.30
2018-05-14T20:37:06.332Z,21.30
2018-05-14T20:39:33.821Z,21.30
2018-05-14T20:42:01.362Z,21.20
2018-05-14T20:44:28.855Z,21.20
2018-05-14T20:46:56.430Z,21.10
2018-05-14T20:49:23.977Z,21.00
2018-05-14T20:51:51.536Z,21.00
2018-05-14T20:54:19.149Z,21.00
2018-05-14T20:56:46.722Z,20.90
2018-05-14T20:59:14.293Z,20.80
2018-05-14T21:01:41.963Z,20.80
2018-05-14T21:04:09.445Z,20.70
2018-05-14T21:06:37.071Z,20.60
2018-05-14T21:09:06.276Z,20.60
2018-05-14T21:11:33.862Z,20.60
2018-05-14T21:14:01.573Z,20.50
2018-05-14T21:16:29.156Z,20.50
2018-05-14T21:18:56.701Z,20.50
2018-05-14T21:21:24.365Z,20.40
2018-05-14T21:23:51.893Z,20.40
2018-05-14T21:26:20.160Z,20.30
2018-05-14T21:28:47.719Z,20.30
2018-05-14T21:31:15.248Z,20.30
2018-05-14T21:33:43.712Z,20.20
2018-05-14T21:36:11.290Z,20.20
2018-05-14T21:38:39.582Z,20.10
2018-05-14T21:41:07.927Z,20.10
2018-05-14T21:43:35.420Z,20.10
2018-05-14T21:46:03.039Z,20.10
2018-05-14T21:48:30.582Z,20.00
2018-05-14T21:50:58.829Z,20.00
2018-05-14T21:53:26.584Z,19.90
2018-05-14T21:55:54.074Z,19.90
2018-05-14T21:58:21.717Z,19.90
2018-05-14T22:00:49.263Z,19.80
2018-05-14T22:03:17.567Z,19.80
2018-05-14T22:05:50.868Z,19.70
2018-05-14T22:08:18.405Z,19.70
2018-05-14T22:10:45.909Z,19.70
2018-05-14T22:13:14.203Z,19.60
2018-05-14T22:15:41.692Z,19.60
2018-05-14T22:18:09.221Z,19.60
2018-05-14T22:20:36.877Z,19.60
2018-05-14T22:23:04.468Z,19.50
2018-05-14T22:25:32.764Z,19.50
2018-05-14T22:28:00.333Z,19.50
2018-05-14T22:30:28.605Z,19.40
2018-05-14T22:32:56.127Z,19.40
2018-05-14T22:35:23.699Z,19.40
2018-05-14T22:37:51.234Z,19.40
2018-05-14T22:40:19.504Z,19.30
2018-05-14T22:42:47.018Z,19.30
2018-05-14T22:45:14.660Z,19.30
2018-05-14T22:47:42.394Z,19.20
2018-05-14T22:50:09.970Z,19.20
2018-05-14T22:52:37.502Z,19.10
2018-05-14T22:55:05.009Z,19.10
2018-05-14T22:57:32.525Z,19.10
2018-05-14T23:00:00.893Z,19.00
2018-05-14T23:02:28.485Z,19.00
2018-05-14T23:04:56.760Z,18.90
2018-05-14T23:07:25.038Z,18.90
2018-05-14T23:09:52.655Z,18.90
2018-05-14T23:12:20.223Z,18.80
2018-05-14T23:14:47.777Z,18.80
2018-05-14T23:17:16.124Z,18.70
2018-05-14T23:19:43.633Z,18.70
2018-05-14T23:22:17.944Z,18.60
2018-05-14T23:24:45.503Z,18.60
2018-05-14T23:27:12.976Z,18.60
2018-05-14T23:29:40.717Z,18.60
2018-05-14T23:32:08.237Z,18.50
2018-05-14T23:34:36.772Z,18.50
2018-05-14T23:37:04.310Z,18.50
2018-05-14T23:39:31.756Z,18.40
2018-05-14T23:41:59.280Z,18.40
2018-05-14T23:44:26.941Z,18.40
2018-05-14T23:46:55.283Z,18.40
2018-05-14T23:49:22.789Z,18.30
2018-05-14T23:51:51.108Z,18.30
2018-05-14T23:54:18.821Z,18.30
2018-05-14T23:56:46.324Z,18.30
2018-05-14T23:59:13.898Z,18.30
